Terminal Aerodrome Forecast
Issued by NWS

Home | Current Version | Previous Version | Text Only | Print | Product List | Glossary On
Versions: 1 2 3 4 5 6 7 8 9 10 11 12 13 14 15 16 17 18 19
000
FTUS44 KTSA 290500
TAFFYV
TAF
KFYV 290520Z 2906/3006 20012KT P6SM SCT250
     FM291400 20015G25KT P6SM SKC
     FM300000 20012KT P6SM FEW250
     FM300300 19012G22KT P6SM SCT250=

USA.gov is the U.S. government's official web portal to all federal, state and local government web resources and services.